Weather observations for the past three days for
Stafford, Stafford Regional Airport
Metric (Imperial)
Date Time (edt) Wind (kph) Vis. (km) Weather Sky Cond. Temperature (ºC) Relative Humidity Wind Chill (°C) Heat Index (°C) Pressure Precipitation (cm)
Air Dwpt 6 hour altimeter (cm) sea level (mb) 1 hr 3 hr 6 hr
Max. Min.
02 12:55 NW 15 16.09 Fair CLR 14.1 -2.4 32% 76.07 0.0
02 12:35 NW 6 16.09 Fair CLR 14.3 -0.8 36% 76.12 0.0
02 12:15 N 13 G 26 16.09 Fair CLR 14.2 -1.3 35% 76.12 0.0
02 11:55 N 9 16.09 Fair CLR 13.8 -0.7 37% 76.12 0.0
02 11:35 N 13 16.09 Fair CLR 13.7 -0.5 38% 76.12 0.0
02 11:15 N 11 16.09 Fair CLR 13 -0.3 40% 76.15 0.0
02 10:55 N 11 16.09 Fair CLR 12.6 0.5 44% 76.15 0.0
02 10:35 NW 9 16.09 Fair CLR 12.2 0.5 45% 76.15 0.0
02 10:15 N 15 G 26 16.09 Fair CLR 12 0.8 47% 76.1 0.0
02 09:55 NW 15 16.09 Fair CLR 12 1.1 48% 76.12 0.0
02 09:35 N 17 16.09 Fair CLR 11.4 1.7 52% 76.12 0.0
02 09:15 N 13 16.09 Fair CLR 11 2.6 56% 76.1 0.0
02 08:55 N 15 16.09 Fair CLR 10.1 2.1 58% 76.12 0.0
02 08:35 N 13 16.09 Fair CLR 10 1.7 57% 8 76.1 0.0
02 08:15 N 13 G 28 16.09 Fair CLR 9.8 2 59% 8 76.12 0.0
02 07:55 N 17 G 26 16.09 Fair CLR 9.5 1.7 11 9 59% 7 76.12 0.0 0.05
02 07:35 N 19 16.09 Fair CLR 9.2 1.5 59% 7 76.12 0.0
02 07:15 N 19 G 26 16.09 Fair CLR 9.2 1.8 60% 7 76.1 0.0
02 06:55 N 19 16.09 Fair CLR 9.2 2.1 61% 7 76.1 0.0
02 06:35 N 19 G 28 16.09 Fair CLR 9.5 2.5 62% 7 76.05 0.0
02 06:15 N 13 16.09 Fair CLR 9.7 3.3 65% 8 76.02 0.0
02 05:55 N 11 16.09 Fair CLR 9.5 4.3 70% 8 76 0.0
02 05:35 N 9 16.09 Partly Cloudy SCT100 10 4.8 70% 9 76 0.0
02 05:15 N 11 16.09 Mostly Cloudy BKN100 10 5.3 73% 9 76 0.0
02 04:55 N 9 16.09 Overcast OVC110 10 6.2 77% 9 76 0.0 0.05
02 04:35 N 7 16.09 Mostly Cloudy BKN110 9.8 6.5 80% 9 75.97 0.0
02 04:15 N 7 16.09 Partly Cloudy SCT110 10 6.4 79% 9 75.97 0.0
02 03:55 N 7 16.09 Partly Cloudy SCT110 9.4 6.6 83% 9 75.92 0.0 0.05
02 03:35 N 7 16.09 Partly Cloudy SCT090 SCT110 9.3 7.6 89% 9 75.95 0.0 0.05
02 03:15 N 6 16.09 Partly Cloudy SCT110 9 7.5 90% 75.95 0.0 0.05
02 02:55 Calm 16.09 Partly Cloudy SCT110 9.3 7.8 90% 75.92 0.0
02 02:35 NW 6 16.09 Partly Cloudy SCT055 10.1 8.4 89% 75.92 0.0
02 02:15 Calm 16.09 Overcast BKN055 OVC110 10.8 9.3 91% 76 0.0
02 01:55 Calm 16.09 Overcast SCT055 BKN095 OVC120 11 9.1 17.5 11 88% 75.95 0.0 0.15
02 01:35 Calm 16.09 Overcast SCT095 OVC120 11 8.9 87% 75.95 0.0
02 01:15 Calm 16.09 Overcast SCT050 BKN090 OVC110 11.4 8.7 84% 75.95 0.0
02 00:55 N 9 16.09 Light Drizzle SCT050 SCT070 OVC090 11.9 8.7 81% 75.95 0.0 0.15
02 00:35 N 6 16.09 Light Rain SCT048 BKN060 OVC095 11.8 8.6 81% 75.95 0.0 0.15
02 00:15 Calm 11.27 Heavy Rain SCT048 OVC075 13.5 5 57% 75.95 0.0 0.05
01 23:55 NW 7 16.09 Overcast BKN075 BKN090 OVC110 13.1 4 54% 75.92 0.0
01 23:35 NE 7 16.09 Overcast BKN075 OVC090 13.7 3.2 49% 75.95 0.0
01 22:55 Calm 16.09 Mostly Cloudy SCT090 BKN120 13.5 2.8 49% 75.84 0.0
01 22:35 S 6 16.09 Partly Cloudy SCT095 SCT120 13.6 2.6 48% 75.82 0.0
01 22:15 S 6 16.09 Partly Cloudy SCT095 13.8 2.5 47% 75.84 0.0
01 21:55 Calm 16.09 Fair CLR 14.3 2.1 44% 75.84 0.0
01 21:35 S 6 16.09 Fair CLR 14.2 2.5 45% 75.84 0.0
01 21:15 S 6 16.09 Partly Cloudy SCT100 14.2 2.9 47% 75.79 0.0
01 20:55 S 6 16.09 Partly Cloudy SCT100 SCT120 15.6 1.4 38% 75.79 0.0
01 20:35 Calm 16.09 Fair CLR 16.9 0.5 33% 75.77 0.0
01 20:15 S 6 16.09 Fair CLR 17 0.1 32% 75.74 0.0
01 19:55 S 6 16.09 Fair CLR 17.6 0 21.6 17.6 31% 75.77 0.0
01 19:35 S 7 16.09 Fair CLR 18.3 -0.3 29% 75.74 0.0
01 19:15 S 13 16.09 Fair CLR 19 -1.3 25% 75.77 0.0
01 18:55 S 9 16.09 Fair CLR 19.8 -1.9 23% 75.74 0.0
01 18:35 SW 7 16.09 Fair CLR 20.1 -3 21% 75.79 0.0
01 18:15 S 19 16.09 Fair CLR 20.3 -4 19% 75.77 0.0
01 17:55 S 19 G 31 16.09 Fair CLR 20.8 -3.7 19% 75.77 0.0
01 17:35 SW 11 16.09 Fair CLR 20.8 -4.3 18% 75.79 0.0
01 17:15 S 15 16.09 Fair CLR 21.1 -3.5 19% 75.84 0.0
01 16:55 SW 11 16.09 Fair CLR 21.4 -4.2 18% 75.82 0.0
01 16:35 S 15 16.09 Fair CLR 21.2 -3 20% 75.84 0.0
01 16:15 S 13 16.09 Fair CLR 21.2 -3.1 19% 75.84 0.0
01 15:55 S 15 G 28 16.09 Fair CLR 21.2 -3.5 19% 75.87 0.0
01 15:35 S 19 16.09 Fair CLR 21.3 -2.7 20% 75.87 0.0
01 15:15 SW 13 G 30 16.09 Fair CLR 21 -3.2 19% 75.95 0.0
01 14:55 S 17 16.09 Fair CLR 20.6 -2.7 21% 75.97 0.0
01 14:35 S 15 16.09 Fair CLR 20.2 -2.6 21% 75.97 0.0
01 13:55 S 9 G 26 16.09 Fair CLR 19.8 -2.3 19.8 8.9 22% 76.02 0.0
01 13:35 S 9 16.09 Fair CLR 19.1 -2.8 23% 76.05 0.0
01 13:15 SW 11 16.09 Fair CLR 18.3 -1.9 25% 76.05 0.0
01 12:55 S 11 16.09 Fair CLR 18.3 -2.1 25% 76.07 0.0
01 12:35 SW 6 16.09 Fair CLR 17.3 -2.3 26% 76.12 0.0
01 12:15 S 9 16.09 Fair CLR 17.3 -1.3 28% 76.12 0.0
01 11:55 Calm 16.09 Fair CLR 17.2 -1 29% 76.12 0.0
01 11:35 SE 9 16.09 Fair CLR 16 -1.7 30% 76.17 0.0
01 11:15 Calm 16.09 Fair CLR 15.6 -2 30% 76.2 0.0
01 10:55 S 7 16.09 Fair CLR 16 -0.5 33% 76.23 0.0
01 10:35 SE 9 16.09 Fair CLR 15.3 0 35% 76.2 0.0
01 10:15 SE 7 16.09 Fair CLR 14.7 0.1 37% 76.17 0.0
01 09:55 E 6 16.09 Fair CLR 14.3 0.6 39% 76.23 0.0
01 09:35 NE 9 16.09 Fair CLR 13.7 0.4 40% 76.2 0.0
01 09:15 N 7 16.09 Fair CLR 13.1 2 47% 76.2 0.0
01 08:55 Calm 16.09 Fair CLR 11.5 2.2 53% 76.23 0.0
01 08:35 Calm 16.09 Fair CLR 11.1 2.6 56% 76.23 0.0
01 08:15 Calm 16.09 Fair CLR 10 3.5 64% 76.25 0.0
01 07:55 Calm 16.09 Fair CLR 8.7 4.5 9 3.2 75% 76.25 0.0
01 07:35 Calm 16.09 Fair CLR 7 4.1 82% 76.23 0.0
01 06:55 Calm 16.09 Fair CLR 4.1 2.2 88% 76.2 0.0
01 06:35 NW 6 16.09 Fair CLR 3.2 1.5 89% 76.17 0.0
01 06:15 Calm 16.09 Fair CLR 3.3 1.3 87% 76.17 0.0
01 05:55 Calm 16.09 Fair CLR 3.6 1.4 86% 76.17 0.0
01 05:35 Calm 16.09 Fair CLR 4.8 2.5 85% 76.12 0.0
01 05:15 Calm 16.09 Fair CLR 5.1 2.1 81% 76.17 0.0
01 04:55 Calm 16.09 Fair CLR 5.2 2.1 81% 76.15 0.0
01 04:35 Calm 16.09 Fair CLR 5.6 2 78% 76.17 0.0
01 04:15 NW 6 16.09 Fair CLR 4.6 1.6 81% 76.15 0.0
01 03:55 Calm 16.09 Fair CLR 5.8 1.5 74% 76.1 0.0
01 03:35 Calm 16.09 Fair CLR 5.8 1.8 76% 76.12 0.0
01 03:15 Calm 16.09 Fair CLR 6.3 1.5 72% 76.1 0.0
01 02:55 Calm 16.09 Fair CLR 7.4 1.2 65% 76.1 0.0
01 02:35 Calm 16.09 Fair CLR 7.7 0.9 62% 76.1 0.0
01 02:15 N 7 16.09 Fair CLR 8.1 0.9 61% 7 76.07 0.0
01 01:55 N 7 16.09 Fair CLR 9 0.8 15.4 8.6 57% 8 76.07 0.0
01 01:35 N 13 16.09 Fair CLR 9.5 0.6 54% 8 76.07 0.0
01 01:15 N 15 16.09 Fair CLR 9.5 0.6 54% 8 76.07 0.0
01 00:55 N 9 16.09 Fair CLR 9.7 0.5 53% 9 76.1 0.0
01 00:35 N 9 16.09 Fair CLR 9.7 0.5 53% 9 76.1 0.0
01 00:15 N 11 16.09 Fair CLR 9.7 0.5 53% 8 76.1 0.0
30 23:15 NW 7 16.09 Fair CLR 10.2 0.8 52% 76.05 0.0
30 22:55 NW 11 16.09 Fair CLR 10.9 1.3 52% 76.02 0.0
30 22:35 N 15 16.09 Fair CLR 11.5 1.7 51% 76.05 0.0
30 22:15 N 20 16.09 Fair CLR 12 2 51% 76 0.0
30 21:55 N 15 16.09 Fair CLR 12.2 1.7 49% 76.02 0.0
30 21:35 N 13 16.09 Fair CLR 12.9 1.9 47% 76 0.0
30 21:15 N 20 G 35 16.09 Fair CLR 13.4 1.6 45% 75.97 0.0
30 20:55 NW 22 G 31 16.09 Fair CLR 13.7 1.2 43% 75.95 0.0
30 20:35 NW 13 16.09 Fair CLR 14 1.2 42% 75.92 0.0
30 20:15 NW 22 G 39 16.09 Fair CLR 14.6 0.5 38% 75.87 0.0
30 19:55 NW 15 G 30 16.09 Fair CLR 15.5 1.5 23.2 15.5 39% 75.84 0.0
30 19:35 N 30 G 35 16.09 Fair CLR 17 1.2 35% 75.82 0.0
30 19:15 N 15 G 30 16.09 Partly Cloudy SCT085 17.8 -0.1 30% 75.79 0.0
30 18:55 NW 17 G 31 16.09 Fair CLR 18.8 -2.5 24% 75.77 0.0
30 18:35 NW 19 G 37 16.09 Fair CLR 18.8 -2.4 24% 75.77 0.0
30 18:15 W 17 G 31 16.09 Fair CLR 18.9 -2.5 23% 75.72 0.0
30 17:55 NW 17 G 28 16.09 Partly Cloudy SCT085 18.9 -2.4 24% 75.69 0.0
30 17:35 NW 20 G 30 16.09 Overcast OVC085 21.2 -2 21% 75.69 0.0
30 17:15 NW 22 G 30 16.09 Mostly Cloudy BKN085 22.2 -0.8 22% 75.64 0.0
30 16:55 NW 17 16.09 Mostly Cloudy BKN085 22.5 -0.5 22% 75.64 0.0
30 16:35 W 13 16.09 Mostly Cloudy BKN085 22.4 -0.9 21% 75.64 0.0
30 16:15 NW 9 16.09 Mostly Cloudy BKN085 21.8 -0.3 23% 75.62 0.0
30 15:55 NW 13 16.09 Partly Cloudy SCT075 22.5 -0.3 22% 75.64 0.0
30 15:35 W 15 G 28 16.09 Mostly Cloudy BKN075 21.2 0 24% 75.64 0.0
30 15:15 NW 13 16.09 Mostly Cloudy BKN080 BKN085 22.5 -0.1 22% 75.64 0.0
30 14:55 W 9 16.09 Partly Cloudy SCT080 22.6 -0.2 22% 75.64 0.0
30 14:35 W 9 16.09 Partly Cloudy SCT070 SCT080 21.5 1.1 26% 75.64 0.0
30 14:15 NW 11 16.09 Mostly Cloudy BKN070 BKN080 20.1 1.6 29% 75.62 0.0
30 13:55 W 11 16.09 Partly Cloudy SCT080 20.9 1.6 21 13.7 28% 75.67 0.0 0.05
30 13:35 SW 6 16.09 Mostly Cloudy SCT055 SCT070 BKN080 20.6 4.7 35% 75.67 0.0
30 13:15 NW 7 16.09 Overcast BKN055 OVC070 18.8 4.7 40% 75.67 0.0
30 12:55 NW 7 16.09 NULL NULL 19.5 5.1 39% 75.72 0.0
30 12:15 NW 9 16.09 Fair CLR 19.9 5.1 38% 75.72 0.0
30 11:55 NW 17 16.09 Mostly Cloudy SCT055 BKN065 20.4 5.4 38% 75.72 0.0
30 11:35 NW 13 G 30 16.09 Mostly Cloudy BKN055 BKN065 19.9 5.1 38% 75.69 0.0
30 11:15 NW 19 G 30 16.09 Partly Cloudy SCT055 SCT070 19.3 5.5 41% 75.72 0.0
30 10:55 NW 9 G 15 16.09 Fair CLR 18.8 6.7 45% 75.77 0.0 0.05
30 10:35 NW 20 16.09 Fair CLR 18.3 6.9 48% 75.77 0.0
30 10:15 NW 17 G 28 16.09 Fair CLR 17.8 7.6 51% 75.77 0.0
30 09:35 NW 17 G 28 16.09 Fair CLR 17 8.1 56% 75.77 0.0 0.05
30 09:15 NW 15 16.09 Fair CLR 17 9.8 63% 75.77 0.0
30 08:55 N 17 G 26 16.09 Fair CLR 15.8 10.7 72% 75.74 0.0
30 08:35 NW 17 16.09 Fair CLR 15 11.3 79% 75.72 0.0
30 08:15 NW 15 16.09 Fair CLR 14.5 11.5 82% 75.69 0.0
30 07:55 NW 9 16.09 Fair CLR 13.6 11.7 13.8 10.5 88% 75.72 0.0
30 07:35 NW 9 16.09 Fair CLR 12 11 94% 75.69 0.0
30 07:15 NW 7 16.09 Fair CLR 11.1 10.1 94% 75.67 0.0
30 06:55 Calm 16.09 Fair CLR 11 10 94% 75.64 0.0
30 06:35 Calm 16.09 Fair CLR 10.9 9.9 94% 75.67 0.0
30 06:15 Calm 16.09 Fair CLR 11.2 10.2 94% 75.64 0.0
30 05:55 Calm 16.09 Fair CLR 11.1 10.2 94% 75.64 0.0
30 05:35 Calm 11.27 Fair CLR 11.7 10.8 94% 75.59 0.0
30 05:15 Calm 1.21 Fog/Mist VV005 12.4 11.4 94% 75.62 0.0
30 04:55 Calm 2.41 Fog/Mist VV007 12.5 11.5 94% 75.62 0.0
30 04:35 Calm 16.09 Fair CLR 12.6 11.6 94% 75.62 0.0
30 04:15 Calm 2.82 Fog/Mist VV007 12.5 11.5 94% 75.57 0.0
30 03:35 Calm 0.40 Fog OVC002 12.5 11.5 94% 75.54 0.0
30 03:15 Calm 0.40 Fog OVC002 12.5 11.5 94% 75.54 0.0
30 02:55 Calm 0.24 Fog OVC002 12.1 11.1 94% 75.54 0.0
30 02:35 Calm 0.24 Fog OVC002 13 12 94% 75.54 0.0
30 02:15 Calm 0.24 Fog OVC002 13.6 12.6 94% 75.57 0.0
30 01:55 Calm 0.24 Fog OVC002 13.9 12.9 17 12.5 94% 75.57 0.0 0.89
30 01:35 Calm 0.24 Fog OVC002 14 13 94% 75.57 0.0
30 01:15 Calm 0.24 Fog OVC002 12.9 11.8 93% 75.59 0.0
30 00:55 Calm 0.24 Fog OVC002 13.5 12.4 93% 75.59 0.0 0.05
30 00:35 Calm 0.40 Fog BKN004 14 13 94% 75.57 0.0 0.05
30 00:15 Calm 2.01 Fog/Mist VV007 14.7 13.5 93% 75.54 0.0
29 23:55 Calm 2.01 Fog/Mist BKN100 14.8 13.5 92% 75.59 0.0
29 23:35 Calm 4.83 Fog/Mist SCT070 SCT085 OVC100 15.5 14.1 91% 75.54 0.0
29 23:15 S 9 8.05 Fog/Mist SCT009 BKN065 OVC085 15.5 14 91% 75.57 0.0
29 22:55 E 9 8.05 Light Rain BKN007 BKN013 OVC022 15.8 14.4 91% 75.62 0.0 0.84 0.84
29 22:35 N 9 2.41 Heavy Rain SCT007 BKN016 OVC025 16 14.5 91% 75.59 0.0 0.71
29 22:15 Calm 16.09 Overcast OVC027 15.6 14.1 91% 75.54 0.0
29 21:55 SE 7 16.09 Overcast BKN027 OVC032 15.9 14.3 90% 75.54 0.0
29 21:35 SE 9 16.09 Overcast BKN023 OVC032 16 14.3 90% 75.54 0.0
29 21:15 SE 7 11.27 Overcast OVC023 16 14.6 91% 75.57 0.0
29 20:55 SE 6 11.27 Overcast OVC027 16.5 15 91% 75.57 0.0
29 20:35 SE 6 11.27 Overcast SCT006 SCT021 OVC029 16.7 15.2 91% 75.57 0.0
29 20:15 Calm 8.05 Drizzle SCT006 SCT023 OVC029 17 15.3 90% 75.54 0.0
29 19:55 E 6 8.05 Light Rain SCT007 OVC029 17 15.3 19.3 17 90% 75.54 0.0 0.03 0.3
29 19:35 E 6 11.27 Light Drizzle SCT007 OVC029 17 15.5 91% 75.57 0.0
29 19:15 Calm 8.05 Light Rain OVC029 17 15.3 90% 75.57 0.0
29 18:55 Calm 11.27 Overcast BKN031 OVC040 17 15.1 89% 75.57 0.0 0.1
29 18:35 Calm 11.27 Drizzle BKN031 BKN042 OVC055 17.1 15.1 88% 75.59 0.0 0.1
29 18:15 SE 6 11.27 Light Rain BKN027 BKN043 OVC070 17 14.8 87% 75.57 0.0 0.1
29 17:55 SE 6 8.05 Rain OVC029 17 15 88% 75.57 0.0 0.18
29 17:35 Calm 8.05 Light Rain OVC029 17.1 14.5 85% 75.64 0.0 0.1
29 17:15 S 6 11.27 Light Rain OVC027 17.8 13.8 78% 75.64 0.0
29 16:55 S 11 16.09 Drizzle OVC027 18.8 13.1 70% 75.64 0.0
29 16:35 S 15 16.09 Overcast OVC025 18.8 12.7 68% 75.64 0.0
29 16:15 SE 6 16.09 Overcast OVC025 18.8 12.9 69% 75.67 0.0
29 15:55 SE 13 16.09 Overcast OVC025 18.8 12.6 67% 75.67 0.0
29 15:35 SE 13 16.09 Overcast OVC027 19.1 12.5 66% 75.69 0.0
29 15:15 SE 7 16.09 Overcast OVC029 19.2 12.5 65% 75.74 0.0
29 14:55 SE 9 16.09 Overcast OVC029 18.3 12.1 67% 75.79 0.0
29 14:35 SE 6 16.09 Overcast OVC029 17.6 12.1 70% 75.84 0.0
29 14:15 Calm 16.09 Light Rain OVC026 17 11.9 72% 75.84 0.0
29 13:35 S 6 16.09 Overcast OVC024 17 11.2 69% 75.92 0.0
29 13:15 SE 6 16.09 Overcast OVC022 17.1 11.2 68% 75.92 0.0
Date Time (edt) Wind (kph) Vis. (km) Weather Sky Cond. Air Dwpt Max. Min. Relative Humidity Wind Chill (°C) Heat Index (°C) altimeter (cm) sea level (mb) 1 hr 3 hr 6 hr
6 hour
Temperature (ºC) Pressure Precipitation (cm)